Main page
METAR-TAF:

METAR-TAF

Airports :

Acapulco, Mexico

Acapulco International Airport

latitude: 16-46N, longitude: 099-45W, elevation: 5 m

Current weather observation

The report was made 23 minutes ago, at 18:49 UTC
Wind 7 kt from the West/Southwest
Temperature 29°C
Humidity 66%
Pressure 1013 hPa
Visibility: 12.9 km
Broken clouds at a height of 30000 ft

METAR: MMAA 191849Z 25007KT 8SM BKN300 29/22 A2991 RMK 8/002 HZY

Time: 13:12 (19:12 UTC)

Forecast

The report was made 2 hours and 39 minutes ago, at 16:33 UTC
Forecast valid from 19 at 18 UTC to 20 at 24 UTC
Wind 10 kt from the Southwest
Visibility: 10 km
Scattered clouds at a height of 30000 ft
From 20 at 0300 UTC
Wind 5 kt from the North/Northwest
Visibility: 10 km
Scattered clouds at a height of 25000 ft

TAF: MMAA 191633Z 1918/2024 23010KT P6SM SCT300 TX29/1920Z TN22/2012Z FM200300 34005KT P6SM SCT250

Weather observations and forecasts of more than 4000 airports (METAR and TAF reports).

The available stations are represented by yellow and red dots on the map.

Hover mouse over dot to see the name of the station.

Then click to see weather observations and forecasts.

To change the map : click on the green buttons with a black cross to zoom in, on the green button with a dash to zoom out, or on the green arrows for adjacent maps.


METAR-TAF: